Time;durP1;ratioP1;P1;durP2;ratioP2;P2;SDS_P1;SDS_P2;PMS_P1;PMS_P2;Temp;Humidity;BMP_temperature;BMP_pressure;BME280_temperature;BME280_humidity;BME280_pressure;Samples;Min_cycle;Max_cycle;Signal;HPM_P1;HPM_P2
2023/05/23 00:02:12;;;;;;;9.30;6.10;;;;;;;16.48;47.23;100492.52;107894;1254;61260;-79
2023/05/23 00:04:40;;;;;;;8.60;6.20;;;;;;;16.43;47.65;100489.83;107904;1254;74626;-79
2023/05/23 00:07:07;;;;;;;7.80;6.00;;;;;;;16.38;48.18;100489.59;108044;1253;72141;-79
2023/05/23 00:09:35;;;;;;;10.70;6.40;;;;;;;16.34;48.53;100489.66;107934;1253;72641;-79
2023/05/23 00:12:03;;;;;;;10.30;6.00;;;;;;;16.31;48.67;100481.88;107871;1255;60673;-80
2023/05/23 00:14:32;;;;;;;9.40;6.30;;;;;;;16.29;48.72;100477.80;107944;1253;61144;-80
2023/05/23 00:17:00;;;;;;;8.20;5.90;;;;;;;16.26;48.83;100475.46;107971;1259;74903;-80
2023/05/23 00:19:29;;;;;;;8.50;6.00;;;;;;;16.21;48.79;100473.13;107980;1253;72662;-79
2023/05/23 00:21:57;;;;;;;9.20;6.60;;;;;;;16.18;48.81;100468.75;107941;1254;71885;-79
2023/05/23 00:24:26;;;;;;;9.20;6.60;;;;;;;16.16;48.99;100466.75;107973;1254;61279;-80
2023/05/23 00:26:54;;;;;;;9.00;5.90;;;;;;;16.13;49.37;100460.17;108092;1254;61262;-79
2023/05/23 00:29:23;;;;;;;8.60;6.50;;;;;;;16.10;49.81;100461.99;108007;1252;74722;-79
2023/05/23 00:31:51;;;;;;;9.90;6.20;;;;;;;16.06;50.03;100464.11;107938;1254;72756;-80
2023/05/23 00:34:19;;;;;;;8.80;6.10;;;;;;;16.03;50.16;100464.27;108038;1254;71899;-79
2023/05/23 00:36:49;;;;;;;10.10;6.30;;;;;;;16.01;50.25;100462.53;107912;1253;60107;-79
2023/05/23 00:39:19;;;;;;;10.50;6.00;;;;;;;15.99;50.22;100462.83;107987;1252;60591;-79
2023/05/23 00:41:48;;;;;;;9.90;6.40;;;;;;;15.97;50.34;100462.23;107851;1254;74701;-79
2023/05/23 00:44:20;;;;;;;8.20;6.50;;;;;;;15.95;50.45;100458.37;107972;1257;72738;-79
2023/05/23 00:46:54;;;;;;;11.00;6.50;;;;;;;15.94;50.73;100459.30;107948;1254;74082;-78
2023/05/23 00:49:22;;;;;;;9.30;6.10;;;;;;;15.92;50.84;100457.02;108400;1254;62166;-78
2023/05/23 00:51:50;;;;;;;7.70;6.00;;;;;;;15.91;50.84;100454.89;107923;1253;61199;-79
2023/05/23 00:54:22;;;;;;;10.50;6.30;;;;;;;15.89;50.68;100455.72;107918;1254;74654;-79
2023/05/23 00:56:50;;;;;;;9.60;6.50;;;;;;;15.88;50.48;100453.95;108119;1253;72547;-78
2023/05/23 00:59:20;;;;;;;9.70;6.30;;;;;;;15.86;50.34;100452.48;107820;1256;73257;-79
2023/05/23 01:01:48;;;;;;;10.20;6.80;;;;;;;15.84;50.23;100450.05;107815;1257;59938;-78
2023/05/23 01:04:25;;;;;;;9.10;6.20;;;;;;;15.83;50.29;100452.17;108126;1253;61058;-78
2023/05/23 01:06:54;;;;;;;10.70;6.80;;;;;;;15.79;50.33;100446.66;107877;1259;73371;-79
2023/05/23 01:09:22;;;;;;;11.30;6.50;;;;;;;15.77;50.46;100446.56;107904;1254;72888;-78
2023/05/23 01:11:58;;;;;;;9.30;6.30;;;;;;;15.73;50.53;100446.45;107851;1256;73639;-78
2023/05/23 01:14:46;;;;;;;8.60;5.70;;;;;;;15.69;50.60;100439.40;107887;1254;61542;-79
2023/05/23 01:17:18;;;;;;;9.30;6.30;;;;;;;15.67;50.78;100444.17;107970;1254;61231;-78
2023/05/23 01:20:00;;;;;;;10.50;6.40;;;;;;;15.64;50.72;100443.75;107911;1254;73457;-79
2023/05/23 01:22:54;;;;;;;9.20;6.00;;;;;;;15.62;50.83;100446.09;108039;1252;72703;-79
2023/05/23 01:25:58;;;;;;;7.50;5.70;;;;;;;15.59;50.86;100447.98;107987;1257;72498;-78
2023/05/23 01:28:33;;;;;;;;;;;;;;;15.56;51.12;100445.60;107971;1254;60462;-78
2023/05/23 01:31:01;;;;;;;10.50;6.00;;;;;;;15.53;51.20;100443.66;107740;1253;61080;-78
2023/05/23 01:33:29;;;;;;;10.30;6.40;;;;;;;15.49;51.32;100440.10;108006;1252;75120;-78
2023/05/23 01:35:57;;;;;;;7.80;6.20;;;;;;;15.47;51.47;100439.98;107866;1254;72898;-78
2023/05/23 01:38:25;;;;;;;10.90;5.90;;;;;;;15.45;51.73;100437.91;108077;1254;71409;-81
2023/05/23 01:40:52;;;;;;;7.40;5.10;;;;;;;15.44;51.73;100437.98;108217;1252;61368;-80
2023/05/23 01:43:20;;;;;;;8.70;5.90;;;;;;;15.42;51.87;100437.14;108183;1254;60082;-79
2023/05/23 01:45:52;;;;;;;7.40;5.80;;;;;;;15.41;51.85;100440.13;108121;1253;74633;-79
2023/05/23 01:48:20;;;;;;;10.20;6.00;;;;;;;15.39;51.96;100440.67;108194;1254;72821;-79
2023/05/23 01:50:48;;;;;;;10.60;5.70;;;;;;;15.37;52.06;100442.79;107944;1254;71912;-80
2023/05/23 01:53:18;;;;;;;13.60;5.50;;;;;;;15.35;52.12;100444.42;108187;1252;61250;-80
2023/05/23 01:55:46;;;;;;;7.90;5.60;;;;;;;15.34;52.17;100442.88;108114;1253;59074;-80
2023/05/23 01:58:14;;;;;;;8.50;5.80;;;;;;;15.33;52.16;100441.64;108006;1253;74695;-80
2023/05/23 02:00:41;;;;;;;7.60;5.70;;;;;;;15.32;52.25;100443.55;108095;1254;72777;-80
2023/05/23 02:03:10;;;;;;;9.10;5.80;;;;;;;15.31;52.25;100445.17;108145;1254;71574;-83
2023/05/23 02:05:38;;;;;;;7.30;5.80;;;;;;;15.29;52.47;100442.92;108102;1254;61151;-81
2023/05/23 02:08:06;;;;;;;7.60;5.80;;;;;;;15.29;52.57;100440.73;108168;1254;61123;-80
2023/05/23 02:10:37;;;;;;;8.60;5.90;;;;;;;15.27;52.74;100436.67;108220;1254;74699;-81
2023/05/23 02:13:04;;;;;;;8.60;6.00;;;;;;;15.27;52.89;100435.59;108243;1254;72843;-81
2023/05/23 02:15:32;;;;;;;11.00;6.10;;;;;;;15.27;52.96;100434.14;108186;1253;71657;-81
2023/05/23 02:18:01;;;;;;;11.30;5.90;;;;;;;15.28;53.07;100434.52;108132;1254;60467;-80
2023/05/23 02:20:30;;;;;;;8.30;5.80;;;;;;;15.27;53.22;100431.39;108136;1252;60012;-81
2023/05/23 02:22:58;;;;;;;9.50;6.30;;;;;;;15.27;53.32;100430.42;108203;1253;74803;-81
2023/05/23 02:25:25;;;;;;;7.90;5.80;;;;;;;15.28;53.60;100427.94;108180;1254;71469;-80
2023/05/23 02:27:53;;;;;;;8.10;5.70;;;;;;;15.28;53.80;100426.33;108141;1254;71479;-81
2023/05/23 02:30:21;;;;;;;9.90;6.20;;;;;;;15.29;54.03;100423.52;108081;1254;61155;-80
2023/05/23 02:32:49;;;;;;;9.20;6.40;;;;;;;15.29;54.03;100420.77;108119;1253;61228;-81
2023/05/23 02:35:16;;;;;;;10.00;6.20;;;;;;;15.30;54.13;100421.35;108129;1254;73693;-80
2023/05/23 02:37:44;;;;;;;10.40;6.20;;;;;;;15.30;54.32;100421.50;108074;1254;72771;-80
2023/05/23 02:40:12;;;;;;;9.60;5.90;;;;;;;15.31;54.21;100420.27;107992;1253;71831;-80
2023/05/23 02:42:41;;;;;;;8.50;6.10;;;;;;;15.32;54.25;100415.17;108006;1254;61221;-80
2023/05/23 02:45:09;;;;;;;7.80;5.50;;;;;;;15.34;54.29;100417.63;107930;1254;168950;-80
2023/05/23 02:47:36;;;;;;;9.20;5.90;;;;;;;15.36;54.27;100418.61;108112;1254;73895;-80
2023/05/23 02:50:05;;;;;;;9.00;5.90;;;;;;;15.40;54.17;100417.36;108007;1254;72595;-80
2023/05/23 02:52:32;;;;;;;6.70;5.80;;;;;;;15.45;54.13;100417.89;108036;1255;72688;-80
2023/05/23 02:55:00;;;;;;;8.20;5.40;;;;;;;15.49;54.06;100418.52;108058;1254;61631;-80
2023/05/23 02:57:29;;;;;;;9.60;5.30;;;;;;;15.53;53.98;100420.67;108095;1254;61454;-80
2023/05/23 02:59:56;;;;;;;9.20;5.60;;;;;;;15.56;53.86;100422.18;108017;1254;74688;-80
2023/05/23 03:02:24;;;;;;;8.90;5.70;;;;;;;15.62;53.83;100420.84;108015;1253;71406;-80
2023/05/23 03:04:52;;;;;;;8.80;6.00;;;;;;;15.67;53.66;100417.17;108013;1254;71405;-80
2023/05/23 03:07:20;;;;;;;8.90;5.50;;;;;;;15.72;53.53;100416.25;108078;1254;61253;-80
2023/05/23 03:09:55;;;;;;;7.90;5.30;;;;;;;15.77;53.39;100414.44;108069;1253;60220;-80
2023/05/23 03:12:23;;;;;;;9.10;5.40;;;;;;;15.81;53.29;100412.16;108182;1252;73484;-81
2023/05/23 03:14:50;;;;;;;10.10;5.10;;;;;;;15.85;53.17;100410.21;108197;1254;71419;-79
2023/05/23 03:17:18;;;;;;;6.90;4.80;;;;;;;15.89;53.02;100412.78;108149;1254;72713;-79
2023/05/23 03:19:46;;;;;;;6.70;5.20;;;;;;;15.97;52.90;100416.05;108083;1254;61089;-79
2023/05/23 03:22:14;;;;;;;6.60;4.50;;;;;;;16.04;52.78;100412.42;108052;1254;61207;-79
2023/05/23 03:24:41;;;;;;;8.80;5.10;;;;;;;16.10;52.70;100413.02;107945;1259;74661;-79
2023/05/23 03:27:10;;;;;;;8.50;5.40;;;;;;;16.20;52.50;100413.38;108087;1254;71127;-80
2023/05/23 03:29:38;;;;;;;7.00;5.00;;;;;;;16.26;52.28;100415.95;108055;1252;72708;-79
2023/05/23 03:32:06;;;;;;;7.70;5.00;;;;;;;16.33;52.19;100420.03;108124;1254;61208;-79
2023/05/23 03:34:35;;;;;;;7.30;4.60;;;;;;;16.37;52.06;100418.88;108183;1254;61339;-79
2023/05/23 03:37:03;;;;;;;7.60;5.20;;;;;;;16.43;52.03;100420.11;107972;1254;74630;-79
2023/05/23 03:39:30;;;;;;;8.40;5.40;;;;;;;16.50;51.97;100422.40;108075;1254;72870;-79
2023/05/23 03:41:58;;;;;;;6.80;4.50;;;;;;;16.58;51.64;100419.11;108009;1254;72668;-80
2023/05/23 03:44:26;;;;;;;7.90;5.00;;;;;;;16.62;51.68;100421.67;107944;1254;61381;-80
2023/05/23 03:46:54;;;;;;;8.30;4.80;;;;;;;16.68;51.74;100420.63;108069;1254;61148;-82
2023/05/23 03:49:22;;;;;;;8.40;5.40;;;;;;;16.74;51.86;100417.47;108093;1254;74676;-80
2023/05/23 03:51:50;;;;;;;7.30;5.30;;;;;;;16.79;51.78;100415.04;108111;1254;72760;-80
2023/05/23 03:54:17;;;;;;;7.30;5.50;;;;;;;16.85;51.93;100417.73;108007;1257;72689;-80
2023/05/23 03:56:45;;;;;;;7.20;5.00;;;;;;;16.90;52.02;100417.23;108054;1252;61144;-81
2023/05/23 03:59:14;;;;;;;7.10;5.00;;;;;;;16.97;52.07;100419.69;108155;1253;60117;-80
2023/05/23 04:01:41;;;;;;;7.30;5.40;;;;;;;17.04;52.06;100421.92;108086;1254;73914;-80
2023/05/23 04:04:09;;;;;;;8.50;5.50;;;;;;;17.11;52.05;100420.67;108097;1254;72741;-80
2023/05/23 04:06:37;;;;;;;6.70;5.40;;;;;;;17.18;51.99;100421.95;108066;1254;72648;-78
2023/05/23 04:09:05;;;;;;;7.00;4.80;;;;;;;17.27;51.73;100420.54;108056;1254;61113;-79
2023/05/23 04:11:37;;;;;;;;;;;;;;;17.37;51.44;100414.70;108182;1259;61120;-79
2023/05/23 04:14:04;;;;;;;9.30;5.40;;;;;;;17.44;51.16;100416.96;108049;1254;74663;-81
2023/05/23 04:16:34;;;;;;;8.00;5.50;;;;;;;17.50;51.06;100411.18;108071;1253;72900;-79
2023/05/23 04:19:03;;;;;;;9.00;5.60;;;;;;;17.57;50.80;100414.98;108130;1254;71616;-80
2023/05/23 04:21:33;;;;;;;8.50;5.30;;;;;;;17.64;50.72;100420.11;108142;1253;61141;-80
2023/05/23 04:24:07;;;;;;;10.40;5.50;;;;;;;17.72;50.54;100419.25;108165;1253;61128;-81
2023/05/23 04:26:35;;;;;;;8.20;5.70;;;;;;;17.80;50.22;100419.90;107997;1254;77330;-80
2023/05/23 04:29:04;;;;;;;7.20;4.70;;;;;;;17.87;49.97;100421.11;108072;1253;71499;-80
2023/05/23 04:31:34;;;;;;;6.70;5.00;;;;;;;17.95;49.88;100419.30;108063;1254;71180;-81
2023/05/23 04:34:03;;;;;;;8.80;5.80;;;;;;;18.03;49.68;100418.66;108021;1256;60136;-81
2023/05/23 04:36:36;;;;;;;8.20;5.80;;;;;;;18.10;49.65;100420.10;107957;1254;61226;-81
2023/05/23 04:39:09;;;;;;;6.60;4.90;;;;;;;18.19;49.66;100421.86;108075;1254;73414;-81
2023/05/23 04:41:44;;;;;;;7.80;5.50;;;;;;;18.28;49.51;100415.89;108138;1254;71601;-81
2023/05/23 04:44:22;;;;;;;7.60;5.60;;;;;;;18.35;49.28;100413.43;108155;1254;71308;-81
2023/05/23 04:47:10;;;;;;;6.60;5.00;;;;;;;18.38;49.10;100418.44;108129;1253;61116;-81
2023/05/23 04:50:01;;;;;;;7.80;4.70;;;;;;;18.56;48.76;100415.03;108060;1254;62050;-81
2023/05/23 04:52:32;;;;;;;6.40;4.70;;;;;;;18.63;48.67;100414.23;108223;1252;73357;-81
2023/05/23 04:55:01;;;;;;;9.80;5.40;;;;;;;18.73;48.68;100414.71;108243;1254;72177;-82
2023/05/23 04:57:29;;;;;;;7.40;5.10;;;;;;;18.82;48.42;100415.98;107996;1259;72680;-81
2023/05/23 04:59:56;;;;;;;7.30;4.90;;;;;;;18.92;48.34;100420.86;107977;1254;61099;-81
2023/05/23 05:02:26;;;;;;;9.40;5.40;;;;;;;19.04;48.10;100414.75;108146;1254;61070;-81
2023/05/23 05:04:54;;;;;;;9.10;5.90;;;;;;;19.16;48.00;100419.88;108166;1254;73357;-81
2023/05/23 05:07:21;;;;;;;8.30;5.60;;;;;;;19.28;47.63;100421.58;108000;1254;72728;-82
2023/05/23 05:09:49;;;;;;;8.20;5.60;;;;;;;19.37;47.43;100422.22;108108;1254;71768;-81
2023/05/23 05:12:17;;;;;;;8.20;5.50;;;;;;;19.45;47.31;100421.80;108115;1257;61209;-81
2023/05/23 05:14:45;;;;;;;7.80;5.20;;;;;;;19.52;47.13;100422.30;108129;1258;61407;-81
2023/05/23 05:17:12;;;;;;;9.80;5.40;;;;;;;19.57;47.05;100422.36;107942;1254;74570;-80
2023/05/23 05:20:07;;;;;;;6.20;5.20;;;;;;;19.65;47.13;100422.54;108130;1254;72136;-81
2023/05/23 05:22:39;;;;;;;7.30;5.20;;;;;;;19.75;46.76;100418.92;108001;1254;72686;-81
2023/05/23 05:25:08;;;;;;;6.40;5.20;;;;;;;19.85;46.64;100420.40;107831;1254;61338;-81
2023/05/23 05:27:38;;;;;;;6.60;5.20;;;;;;;19.95;46.58;100424.81;107998;1254;61103;-81
2023/05/23 05:30:09;;;;;;;6.60;4.80;;;;;;;20.08;46.75;100422.02;108130;1254;73659;-81
2023/05/23 05:32:47;;;;;;;7.10;5.50;;;;;;;20.18;46.16;100424.84;108166;1252;71461;-81
2023/05/23 05:35:15;;;;;;;7.10;5.30;;;;;;;20.24;46.26;100419.25;107999;1257;70382;-80
2023/05/23 05:37:44;;;;;;;6.70;4.70;;;;;;;20.37;45.95;100418.41;108253;1254;61320;-81
2023/05/23 05:40:12;;;;;;;6.70;4.70;;;;;;;20.53;45.86;100419.04;108156;1254;61159;-82
2023/05/23 05:42:44;;;;;;;9.30;5.10;;;;;;;20.68;45.61;100420.45;108179;1254;74032;-82
2023/05/23 05:45:12;;;;;;;7.40;5.80;;;;;;;20.73;45.51;100415.38;108029;1253;72742;-81
2023/05/23 05:47:42;;;;;;;6.90;5.30;;;;;;;20.68;45.14;100416.09;108172;1254;73066;-81
2023/05/23 05:50:10;;;;;;;10.20;5.30;;;;;;;20.75;45.28;100413.48;108159;1254;61137;-82
2023/05/23 05:52:38;;;;;;;8.80;5.30;;;;;;;20.91;45.03;100413.42;108195;1254;61131;-82
2023/05/23 05:55:10;;;;;;;7.60;5.00;;;;;;;21.26;44.40;100410.09;108135;1253;73375;-82
2023/05/23 05:57:39;;;;;;;7.40;5.20;;;;;;;21.42;44.03;100406.69;107973;1254;71607;-82
2023/05/23 06:00:18;;;;;;;9.70;5.60;;;;;;;21.46;44.00;100406.60;108047;1253;71390;-82
2023/05/23 06:02:50;;;;;;;9.40;5.90;;;;;;;21.49;44.30;100409.54;108041;1254;61247;-82
2023/05/23 06:05:41;;;;;;;7.90;5.60;;;;;;;21.65;44.17;100412.09;108077;1254;62853;-82
2023/05/23 06:08:09;;;;;;;7.80;5.50;;;;;;;21.79;43.74;100409.48;108078;1254;74764;-82
2023/05/23 06:10:38;;;;;;;7.70;5.10;;;;;;;21.91;43.43;100401.81;108140;1253;71457;-81
2023/05/23 06:13:06;;;;;;;6.80;5.70;;;;;;;21.99;43.28;100403.41;108031;1254;71624;-82
2023/05/23 06:15:36;;;;;;;7.60;5.20;;;;;;;22.08;43.12;100403.48;108080;1254;60515;-80
2023/05/23 06:18:03;;;;;;;7.10;5.20;;;;;;;22.12;42.88;100395.98;108000;1253;61228;-81
2023/05/23 06:20:31;;;;;;;7.80;5.30;;;;;;;22.07;43.37;100395.48;108177;1254;73410;-80
2023/05/23 06:23:02;;;;;;;9.50;5.40;;;;;;;22.08;43.38;100390.40;108135;1253;71822;-80
2023/05/23 06:25:30;;;;;;;6.70;5.30;;;;;;;22.24;43.51;100391.95;108010;1253;71929;-80
2023/05/23 06:27:59;;;;;;;7.20;5.10;;;;;;;22.27;43.31;100393.86;108137;1253;61106;-81
2023/05/23 06:30:28;;;;;;;8.80;4.70;;;;;;;22.40;42.87;100392.42;108066;1253;60036;-80
2023/05/23 06:32:56;;;;;;;9.40;5.60;;;;;;;22.54;42.41;100384.52;108023;1254;74634;-81
2023/05/23 06:35:25;;;;;;;7.40;4.90;;;;;;;22.66;42.17;100382.27;108114;1254;72729;-83
2023/05/23 06:37:55;;;;;;;8.30;5.40;;;;;;;22.80;42.05;100377.68;108038;1253;71082;-81
2023/05/23 06:40:22;;;;;;;5.90;4.10;;;;;;;22.94;41.62;100379.67;107946;1254;61205;-80
2023/05/23 06:42:50;;;;;;;8.30;4.70;;;;;;;23.00;41.62;100376.14;108140;1254;61735;-81
2023/05/23 06:45:38;;;;;;;9.20;4.90;;;;;;;23.07;41.35;100372.67;108010;1259;73451;-81
2023/05/23 06:48:05;;;;;;;7.90;5.30;;;;;;;23.18;41.29;100369.15;108151;1254;71592;-81
2023/05/23 06:50:35;;;;;;;7.70;5.20;;;;;;;23.25;41.07;100367.02;108151;1254;72711;-81
2023/05/23 06:53:03;;;;;;;9.20;5.10;;;;;;;23.37;40.77;100364.62;108156;1259;61439;-81
2023/05/23 06:55:32;;;;;;;8.50;4.60;;;;;;;23.50;40.34;100361.54;108109;1253;61134;-80
2023/05/23 06:58:02;;;;;;;22.70;5.10;;;;;;;23.57;39.79;100358.09;108071;1254;74761;-81
2023/05/23 07:00:30;;;;;;;7.30;4.30;;;;;;;23.66;39.71;100356.53;107965;1253;71486;-82
2023/05/23 07:03:06;;;;;;;6.40;4.40;;;;;;;23.79;39.77;100354.45;108197;1257;72768;-81
2023/05/23 07:05:35;;;;;;;8.60;4.50;;;;;;;23.90;39.26;100350.20;107950;1254;61183;-81
2023/05/23 07:08:09;;;;;;;7.50;4.40;;;;;;;23.97;39.20;100347.75;108038;1256;61135;-81
2023/05/23 07:10:40;;;;;;;7.60;4.00;;;;;;;24.06;39.04;100349.14;108068;1258;75631;-82
2023/05/23 07:13:25;;;;;;;7.50;4.10;;;;;;;24.22;38.63;100347.41;108156;1254;71607;-81
2023/05/23 07:15:54;;;;;;;7.60;4.40;;;;;;;24.36;38.23;100344.45;108151;1254;71032;-81
2023/05/23 07:18:22;;;;;;;8.30;4.50;;;;;;;24.47;38.13;100345.19;108087;1253;61211;-80
2023/05/23 07:20:51;;;;;;;7.00;4.40;;;;;;;24.55;38.21;100343.43;108243;1254;61161;-81
2023/05/23 07:23:22;;;;;;;7.80;4.70;;;;;;;24.71;38.11;100347.02;108020;1254;73462;-81
2023/05/23 07:25:50;;;;;;;8.00;4.50;;;;;;;24.85;37.97;100344.05;108186;1258;73209;-81
2023/05/23 07:28:36;;;;;;;8.00;4.50;;;;;;;24.95;37.34;100343.33;85418;1254;20003027;-82
2023/05/23 07:31:04;;;;;;;8.30;4.60;;;;;;;24.96;36.93;100343.27;100532;1259;10001445;-82
2023/05/23 07:33:33;;;;;;;7.00;4.50;;;;;;;24.96;36.73;100341.88;108126;1254;73159;-83
2023/05/23 07:36:03;;;;;;;7.30;4.00;;;;;;;25.05;36.60;100337.22;108029;1254;71257;-82
2023/05/23 07:38:30;;;;;;;5.50;3.90;;;;;;;25.21;36.61;100336.59;107933;1259;71440;-82
2023/05/23 07:40:58;;;;;;;8.20;4.30;;;;;;;25.36;36.31;100332.66;108085;1253;61145;-81
2023/05/23 07:43:38;;;;;;;7.60;3.50;;;;;;;25.49;36.04;100334.88;107965;1254;61093;-82
2023/05/23 07:46:06;;;;;;;5.90;3.40;;;;;;;25.61;35.80;100329.37;107893;1254;74675;-83
2023/05/23 07:48:34;;;;;;;5.90;2.90;;;;;;;25.73;35.12;100329.56;108079;1254;71421;-82
2023/05/23 07:51:02;;;;;;;4.70;2.50;;;;;;;25.78;34.81;100327.16;108018;1254;72506;-83
2023/05/23 07:53:30;;;;;;;5.60;3.00;;;;;;;25.83;34.89;100323.45;107880;1254;61180;-85
2023/05/23 07:55:58;;;;;;;4.70;2.80;;;;;;;25.90;35.00;100323.33;108029;1254;58873;-82
2023/05/23 07:58:28;;;;;;;5.80;2.90;;;;;;;25.98;34.75;100319.45;108059;1254;73398;-81
2023/05/23 08:00:56;;;;;;;6.80;3.10;;;;;;;26.01;34.86;100316.30;108162;1259;71782;-81
2023/05/23 08:03:44;;;;;;;5.50;2.90;;;;;;;26.02;34.55;100312.31;108042;1260;71296;-81
2023/05/23 08:06:17;;;;;;;7.30;3.40;;;;;;;26.02;34.23;100312.54;107945;1254;61162;-80
2023/05/23 08:08:45;;;;;;;5.80;3.10;;;;;;;25.91;34.37;100310.90;107962;1254;61093;-80
2023/05/23 08:11:14;;;;;;;5.20;3.40;;;;;;;25.83;34.46;100308.82;107982;1254;73779;-82
2023/05/23 08:13:45;;;;;;;7.60;3.80;;;;;;;25.85;34.77;100308.70;108082;1254;72222;-81
2023/05/23 08:16:36;;;;;;;7.90;3.90;;;;;;;25.90;34.97;100309.47;107766;1259;72659;-82
2023/05/23 08:19:20;;;;;;;8.20;4.10;;;;;;;25.96;34.43;100308.95;108005;1255;61212;-80
2023/05/23 08:21:48;;;;;;;7.20;3.80;;;;;;;25.99;34.28;100306.89;107933;1254;61263;-81
2023/05/23 08:24:16;;;;;;;9.00;3.90;;;;;;;26.00;34.48;100301.25;108052;1253;74670;-81
2023/05/23 08:26:43;;;;;;;9.20;4.00;;;;;;;26.05;34.17;100301.73;108033;1254;72687;-82
2023/05/23 08:29:13;;;;;;;8.50;3.70;;;;;;;26.12;34.24;100298.87;107977;1254;71816;-82
2023/05/23 08:31:41;;;;;;;7.60;3.90;;;;;;;26.23;33.87;100291.75;108007;1257;60182;-81
2023/05/23 08:34:10;;;;;;;6.90;4.20;;;;;;;26.26;33.76;100289.91;108148;1254;61202;-81
2023/05/23 08:36:39;;;;;;;7.00;4.10;;;;;;;26.25;34.04;100286.63;107991;1254;74719;-82
2023/05/23 08:39:09;;;;;;;7.60;4.20;;;;;;;26.30;34.27;100284.89;107937;1255;71166;-81
2023/05/23 08:42:00;;;;;;;8.20;3.80;;;;;;;26.35;33.89;100283.94;108045;1259;72415;-81
2023/05/23 08:44:27;;;;;;;6.30;3.70;;;;;;;26.41;33.77;100279.88;107945;1254;61101;-81
2023/05/23 08:47:01;;;;;;;5.60;3.70;;;;;;;26.55;33.68;100271.63;108037;1254;61196;-82
2023/05/23 08:49:42;;;;;;;8.40;3.50;;;;;;;26.68;33.22;100272.74;108071;1254;73440;-82
2023/05/23 08:52:12;;;;;;;7.50;4.00;;;;;;;26.72;33.04;100271.13;107945;1259;72106;-81
2023/05/23 08:54:41;;;;;;;5.80;3.30;;;;;;;26.70;32.93;100268.06;108003;1254;71303;-82
2023/05/23 08:57:10;;;;;;;10.60;3.90;;;;;;;26.58;33.30;100264.00;107963;1254;61175;-82
2023/05/23 08:59:40;;;;;;;6.80;2.90;;;;;;;26.52;33.47;100266.74;108019;1254;61227;-82
2023/05/23 09:02:11;;;;;;;5.40;3.50;;;;;;;26.50;33.33;100262.11;107865;1255;75244;-84
2023/05/23 09:04:39;;;;;;;5.60;3.00;;;;;;;26.54;33.66;100255.44;108222;1253;72757;-81
2023/05/23 09:07:16;;;;;;;5.20;2.80;;;;;;;26.68;32.98;100253.09;108316;1254;71948;-81
2023/05/23 09:09:44;;;;;;;8.10;3.30;;;;;;;26.77;32.57;100254.13;108112;1254;61167;-83
2023/05/23 09:12:14;;;;;;;5.90;3.20;;;;;;;26.89;32.62;100250.11;107931;1259;61139;-81
2023/05/23 09:14:43;;;;;;;5.20;3.00;;;;;;;27.00;32.41;100248.98;108236;1256;74670;-82
2023/05/23 09:17:15;;;;;;;6.80;2.50;;;;;;;26.96;32.13;100252.13;108068;1254;73586;-81
2023/05/23 09:19:45;;;;;;;8.60;2.90;;;;;;;26.77;32.08;100248.88;107949;1254;73348;-81
2023/05/23 09:22:26;;;;;;;4.80;2.40;;;;;;;26.57;32.18;100247.64;108112;1255;61102;-82
2023/05/23 09:25:00;;;;;;;5.80;2.80;;;;;;;26.54;32.60;100246.42;108046;1258;61141;-82
2023/05/23 09:27:29;;;;;;;5.20;2.20;;;;;;;26.61;32.56;100241.04;108093;1258;74650;-83
2023/05/23 09:29:57;;;;;;;5.90;2.60;;;;;;;26.74;32.30;100239.14;107896;1254;72039;-83
2023/05/23 09:32:26;;;;;;;5.70;2.80;;;;;;;26.82;31.98;100229.77;107881;1254;72113;-81
2023/05/23 09:34:55;;;;;;;7.00;2.40;;;;;;;26.97;31.78;100230.46;108005;1253;61145;-82
2023/05/23 09:37:33;;;;;;;6.20;2.50;;;;;;;27.11;31.41;100233.83;107951;1254;61243;-82
2023/05/23 09:40:08;;;;;;;5.20;2.30;;;;;;;27.13;31.23;100235.27;108099;1256;75589;-81
2023/05/23 09:42:43;;;;;;;8.20;2.40;;;;;;;27.08;31.11;100234.88;108747;1259;72861;-82
2023/05/23 09:45:12;;;;;;;6.40;2.40;;;;;;;27.02;31.09;100229.42;108574;1259;73133;-82
2023/05/23 09:47:52;;;;;;;5.10;2.30;;;;;;;27.02;31.26;100224.89;108614;1254;61064;-82
2023/05/23 09:50:22;;;;;;;5.70;2.40;;;;;;;27.00;31.34;100217.33;108641;1258;59595;-82
2023/05/23 09:52:53;;;;;;;5.40;2.10;;;;;;;26.89;31.17;100221.00;108193;1254;73384;-80
2023/05/23 09:55:20;;;;;;;5.90;2.40;;;;;;;26.73;31.14;100220.04;108204;1258;72950;-80
2023/05/23 09:57:55;;;;;;;5.90;2.60;;;;;;;26.59;31.80;100225.36;108269;1255;72457;-80
2023/05/23 10:00:24;;;;;;;4.80;2.70;;;;;;;26.53;32.53;100222.32;108401;1253;60083;-80
2023/05/23 10:03:06;;;;;;;5.80;2.80;;;;;;;26.58;32.80;100228.31;108415;1254;61028;-81
2023/05/23 10:05:48;;;;;;;6.60;2.80;;;;;;;26.68;32.72;100231.24;108449;1260;73430;-82
2023/05/23 10:08:21;;;;;;;5.20;2.50;;;;;;;26.82;32.77;100226.95;108117;1254;71220;-81
2023/05/23 10:10:55;;;;;;;4.80;2.80;;;;;;;27.02;31.97;100225.42;108077;1258;70304;-81
2023/05/23 10:13:25;;;;;;;8.70;2.40;;;;;;;27.27;31.89;100223.42;108157;1258;61314;-79
2023/05/23 10:16:20;;;;;;;5.90;2.70;;;;;;;27.41;31.70;100220.09;108003;1254;61169;-82
2023/05/23 10:18:52;;;;;;;6.20;2.90;;;;;;;27.43;31.45;100220.11;108245;1253;73374;-81
2023/05/23 10:21:23;;;;;;;5.30;3.00;;;;;;;27.37;31.79;100220.46;108036;1255;71969;-81
2023/05/23 10:23:51;;;;;;;7.70;3.10;;;;;;;27.31;32.30;100217.97;107979;1254;71432;-80
2023/05/23 10:26:18;;;;;;;6.00;2.60;;;;;;;27.27;32.40;100218.17;108012;1254;61229;-81
2023/05/23 10:28:46;;;;;;;8.10;3.00;;;;;;;27.27;32.35;100217.39;108035;1254;61307;-81
2023/05/23 10:31:13;;;;;;;7.00;2.70;;;;;;;27.27;32.32;100214.88;108031;1254;73395;-81
2023/05/23 10:33:42;;;;;;;7.90;3.20;;;;;;;27.25;32.64;100218.01;107963;1258;72753;-82
2023/05/23 10:36:32;;;;;;;7.40;2.60;;;;;;;27.29;32.88;100209.80;107999;1255;71195;-82
2023/05/23 10:39:07;;;;;;;5.20;2.60;;;;;;;27.47;32.75;100206.17;107950;1254;61327;-81
2023/05/23 10:41:41;;;;;;;6.10;2.70;;;;;;;27.69;32.45;100203.92;108627;1254;59984;-80
2023/05/23 10:44:28;;;;;;;4.50;2.50;;;;;;;27.95;31.81;100197.68;108024;1254;74625;-80
2023/05/23 10:47:03;;;;;;;6.20;2.70;;;;;;;28.20;30.96;100193.73;107963;1254;71815;-80
2023/05/23 10:49:47;;;;;;;5.40;2.60;;;;;;;28.30;30.52;100190.71;107997;1257;71448;-82
2023/05/23 10:52:16;;;;;;;6.70;2.80;;;;;;;28.21;30.35;100192.71;107869;1254;61245;-80
2023/05/23 10:54:46;;;;;;;6.20;2.80;;;;;;;28.13;30.70;100189.23;108076;1254;60186;-80
2023/05/23 10:57:19;;;;;;;6.10;2.40;;;;;;;28.07;31.27;100186.61;108134;1254;73169;-81
2023/05/23 10:59:50;;;;;;;8.80;3.10;;;;;;;28.00;30.92;100182.80;108243;1254;73734;-80
2023/05/23 11:02:19;;;;;;;6.10;2.70;;;;;;;28.03;31.11;100187.84;107843;1254;71987;-80
2023/05/23 11:04:47;;;;;;;7.90;2.90;;;;;;;28.05;30.37;100192.09;107956;1254;61126;-81
2023/05/23 11:08:06;;;;;;;4.70;2.70;;;;;;;28.02;30.30;100189.64;107853;1254;61253;-81
2023/05/23 11:10:54;;;;;;;4.40;2.40;;;;;;;28.14;30.05;100183.74;108358;1260;73449;-82
2023/05/23 11:13:22;;;;;;;7.60;2.50;;;;;;;28.26;29.57;100182.61;107546;1260;72723;-81
2023/05/23 11:15:49;;;;;;;5.50;2.50;;;;;;;28.28;29.59;100178.61;107572;1259;72699;-80
2023/05/23 11:18:29;;;;;;;8.20;2.40;;;;;;;28.31;29.55;100173.21;107569;1259;61801;-81
2023/05/23 11:20:57;;;;;;;7.70;2.90;;;;;;;28.32;29.56;100170.31;107603;1260;60030;-82
2023/05/23 11:23:25;;;;;;;4.40;2.30;;;;;;;28.43;29.50;100175.87;107370;1261;75660;-81
2023/05/23 11:25:52;;;;;;;5.60;2.80;;;;;;;28.53;29.26;100172.05;107462;1261;72710;-80
2023/05/23 11:28:20;;;;;;;5.30;2.60;;;;;;;28.45;29.29;100168.58;107517;1260;71493;-81
2023/05/23 11:30:48;;;;;;;6.70;2.80;;;;;;;28.19;29.66;100171.52;107492;1261;61324;-79
2023/05/23 11:33:17;;;;;;;7.00;2.70;;;;;;;27.98;29.89;100178.55;92757;1261;10002281;-80
2023/05/23 11:35:46;;;;;;;6.40;2.70;;;;;;;27.81;30.47;100180.27;107567;1260;61007;-80